createdAt,value
2018-07-05T00:02:30.739Z,10.77
2018-07-05T00:05:11.204Z,12.77
2018-07-05T00:07:51.664Z,14.23
2018-07-05T00:10:32.120Z,15.77
2018-07-05T00:13:12.612Z,15.67
2018-07-05T00:15:53.250Z,19.90
2018-07-05T00:18:33.809Z,17.07
2018-07-05T00:21:13.967Z,16.47
2018-07-05T00:23:54.378Z,14.87
2018-07-05T00:26:34.692Z,16.67
2018-07-05T00:29:15.094Z,15.90
2018-07-05T00:31:55.579Z,16.87
2018-07-05T00:34:35.907Z,13.83
2018-07-05T00:37:16.053Z,15.17
2018-07-05T00:39:56.486Z,10.23
2018-07-05T00:42:36.918Z,16.37
2018-07-05T00:45:17.404Z,15.33
2018-07-05T00:47:57.774Z,13.47
2018-07-05T00:50:38.058Z,14.63
2018-07-05T00:53:18.179Z,13.87
2018-07-05T00:55:58.581Z,15.57
2018-07-05T00:58:38.825Z,16.03
2018-07-05T01:01:19.227Z,11.83
2018-07-05T01:03:59.512Z,16.80
2018-07-05T01:06:39.873Z,18.23
2018-07-05T01:09:20.130Z,16.13
2018-07-05T01:12:00.690Z,13.17
2018-07-05T01:14:41.054Z,13.57
2018-07-05T01:17:21.836Z,19.17
2018-07-05T01:20:02.081Z,13.37
2018-07-05T01:22:42.642Z,12.77
2018-07-05T01:25:23.001Z,17.43
2018-07-05T01:28:03.503Z,13.63
2018-07-05T01:30:43.839Z,20.53
2018-07-05T01:33:24.109Z,10.73
2018-07-05T01:36:04.286Z,11.13
2018-07-05T01:38:44.794Z,14.90
2018-07-05T01:41:25.160Z,14.37
2018-07-05T01:44:05.513Z,12.93
2018-07-05T01:46:45.748Z,9.87
2018-07-05T01:49:26.334Z,14.00
2018-07-05T01:52:10.617Z,12.30
2018-07-05T01:54:50.946Z,9.13
2018-07-05T01:57:31.193Z,13.17
2018-07-05T02:00:11.461Z,11.50
2018-07-05T02:02:52.228Z,8.50
2018-07-05T02:05:34.015Z,13.23
2018-07-05T02:08:14.453Z,11.03
2018-07-05T02:10:55.050Z,11.60
2018-07-05T02:13:35.221Z,10.43
2018-07-05T02:16:16.102Z,10.40
2018-07-05T02:18:56.656Z,14.90
2018-07-05T02:21:37.218Z,14.07
2018-07-05T02:24:17.484Z,9.83
2018-07-05T02:26:57.963Z,9.53
2018-07-05T02:29:38.585Z,12.87
2018-07-05T02:32:18.996Z,14.50
2018-07-05T02:34:59.263Z,15.63
2018-07-05T02:37:44.989Z,15.10
2018-07-05T02:40:26.310Z,8.17
2018-07-05T02:43:06.525Z,11.10
2018-07-05T02:45:47.115Z,11.17
2018-07-05T02:48:27.394Z,17.70
2018-07-05T02:51:07.807Z,8.87
2018-07-05T02:53:48.418Z,12.57
2018-07-05T02:56:28.633Z,11.27
2018-07-05T02:59:08.992Z,8.93
2018-07-05T03:01:49.161Z,8.70
2018-07-05T03:04:29.631Z,13.23
2018-07-05T03:07:10.063Z,8.80
2018-07-05T03:09:50.423Z,10.50
2018-07-05T03:12:30.783Z,8.80
2018-07-05T03:15:11.248Z,9.87
2018-07-05T03:17:51.332Z,7.97
2018-07-05T03:20:31.944Z,10.00
2018-07-05T03:23:12.322Z,11.40
2018-07-05T03:25:52.989Z,11.30
2018-07-05T03:28:33.348Z,8.67
2018-07-05T03:31:13.914Z,9.20
2018-07-05T03:33:54.277Z,6.83
2018-07-05T03:36:34.697Z,8.20
2018-07-05T03:39:15.163Z,8.93
2018-07-05T03:41:55.819Z,11.50
2018-07-05T03:44:35.954Z,7.33
2018-07-05T03:47:16.476Z,9.50
2018-07-05T03:49:56.835Z,9.30
2018-07-05T03:52:37.249Z,9.40
2018-07-05T03:55:17.453Z,8.90
2018-07-05T03:57:58.323Z,9.60
2018-07-05T04:00:38.688Z,8.87
2018-07-05T04:03:19.453Z,7.97
2018-07-05T04:06:00.221Z,6.83
2018-07-05T04:08:40.604Z,8.93
2018-07-05T04:11:20.830Z,12.93
2018-07-05T04:14:01.402Z,9.80
2018-07-05T04:16:41.865Z,11.70
2018-07-05T04:19:22.524Z,8.33
2018-07-05T04:22:02.783Z,11.67
2018-07-05T04:24:43.273Z,9.03
2018-07-05T04:27:23.598Z,9.87
2018-07-05T04:30:03.935Z,10.90
2018-07-05T04:32:44.202Z,8.37
2018-07-05T04:35:24.580Z,12.97
2018-07-05T04:38:04.613Z,13.77
2018-07-05T04:40:45.116Z,7.00
2018-07-05T04:43:25.298Z,8.60
2018-07-05T04:46:06.119Z,11.17
2018-07-05T04:48:46.477Z,8.70
2018-07-05T04:51:26.724Z,9.77
2018-07-05T04:54:06.992Z,18.20
2018-07-05T04:56:47.352Z,58.67
2018-07-05T04:59:27.711Z,13.03
2018-07-05T05:02:08.202Z,9.53
2018-07-05T05:04:48.521Z,9.87
2018-07-05T05:07:29.039Z,6.60
2018-07-05T05:10:09.374Z,7.73
2018-07-05T05:12:50.092Z,9.87
2018-07-05T05:15:30.402Z,6.23
2018-07-05T05:18:10.759Z,9.60
2018-07-05T05:20:51.037Z,11.90
2018-07-05T05:23:31.659Z,10.63
2018-07-05T05:26:11.917Z,7.10
2018-07-05T05:28:52.529Z,62.50
2018-07-05T05:31:32.840Z,6.93
2018-07-05T05:34:13.130Z,6.97
2018-07-05T05:36:53.496Z,12.23
2018-07-05T05:39:33.915Z,5.63
2018-07-05T05:42:14.484Z,9.30
2018-07-05T05:44:55.070Z,4.97
2018-07-05T05:47:35.326Z,5.10
2018-07-05T05:50:15.745Z,5.20
2018-07-05T05:52:56.173Z,7.77
2018-07-05T05:55:37.019Z,11.00
2018-07-05T05:58:17.763Z,5.80
2018-07-05T06:00:58.175Z,6.10
2018-07-05T06:03:38.643Z,4.87
2018-07-05T06:06:18.991Z,10.80
2018-07-05T06:08:59.203Z,9.27
2018-07-05T06:11:40.105Z,5.53
2018-07-05T06:14:20.241Z,8.60
2018-07-05T06:17:00.688Z,5.20
2018-07-05T06:19:41.151Z,6.90
2018-07-05T06:22:21.537Z,7.53
2018-07-05T06:25:01.766Z,10.57
2018-07-05T06:27:42.247Z,8.00
2018-07-05T06:30:22.483Z,12.47
2018-07-05T06:33:02.971Z,10.73
2018-07-05T06:35:43.109Z,7.53
2018-07-05T06:38:23.671Z,8.07
2018-07-05T06:41:04.685Z,7.70
2018-07-05T06:43:45.415Z,6.47
2018-07-05T06:46:25.693Z,5.30
2018-07-05T06:49:06.335Z,6.57
2018-07-05T06:51:46.591Z,7.60
2018-07-05T06:54:27.073Z,5.73
2018-07-05T06:57:07.285Z,6.27
2018-07-05T06:59:47.534Z,5.57
2018-07-05T07:02:27.823Z,8.90
2018-07-05T07:05:08.283Z,8.03
2018-07-05T07:07:48.542Z,7.63
2018-07-05T07:10:29.209Z,6.93
2018-07-05T07:13:09.363Z,7.70
2018-07-05T07:15:50.238Z,8.37
2018-07-05T07:18:30.363Z,7.40
2018-07-05T07:21:10.749Z,8.97
2018-07-05T07:23:51.027Z,9.40
2018-07-05T07:26:31.502Z,14.10
2018-07-05T07:29:11.827Z,9.10
2018-07-05T07:31:52.294Z,7.10
2018-07-05T07:34:32.592Z,8.30
2018-07-05T07:37:12.903Z,11.03
2018-07-05T07:39:53.366Z,10.43
2018-07-05T07:42:21.332Z,5.90
2018-07-05T07:44:49.612Z,6.10
2018-07-05T07:47:17.576Z,7.77
2018-07-05T07:49:45.651Z,7.40
2018-07-05T07:52:13.516Z,7.60
2018-07-05T07:54:41.482Z,9.53
2018-07-05T07:57:09.631Z,9.07
2018-07-05T07:59:37.729Z,8.13
2018-07-05T08:02:05.594Z,15.33
2018-07-05T08:04:33.520Z,40.13
2018-07-05T08:07:01.554Z,8.53
2018-07-05T08:09:29.450Z,10.07
2018-07-05T08:11:57.370Z,16.67
2018-07-05T08:14:25.295Z,8.90
2018-07-05T08:16:53.036Z,9.57
2018-07-05T08:19:21.070Z,6.57
2018-07-05T08:21:49.074Z,10.33
2018-07-05T08:24:16.905Z,10.90
2018-07-05T08:26:44.874Z,8.33
2018-07-05T08:29:12.944Z,9.67
2018-07-05T08:31:40.936Z,5.13
2018-07-05T08:34:08.711Z,6.70
2018-07-05T08:36:36.522Z,8.70
2018-07-05T08:39:05.394Z,7.03
2018-07-05T08:41:33.349Z,5.57
2018-07-05T08:44:01.166Z,5.97
2018-07-05T08:46:29.745Z,6.57
2018-07-05T08:48:57.807Z,6.53
2018-07-05T08:51:25.691Z,4.70
2018-07-05T08:53:53.584Z,6.97
2018-07-05T08:56:21.777Z,5.90
2018-07-05T08:58:49.595Z,7.93
2018-07-05T09:01:17.471Z,5.50
2018-07-05T09:03:45.436Z,6.87
2018-07-05T09:06:13.221Z,5.63
2018-07-05T09:08:41.039Z,9.77
2018-07-05T09:11:09.134Z,11.90
2018-07-05T09:13:36.999Z,5.40
2018-07-05T09:16:04.970Z,8.80
2018-07-05T09:18:33.142Z,8.00
2018-07-05T09:21:01.158Z,7.50
2018-07-05T09:23:29.222Z,6.33
2018-07-05T09:25:56.843Z,10.27
2018-07-05T09:28:25.122Z,5.50
2018-07-05T09:30:53.190Z,7.53
2018-07-05T09:33:20.996Z,7.30
2018-07-05T09:35:49.126Z,6.17
2018-07-05T09:38:17.238Z,5.10
2018-07-05T09:40:45.270Z,6.23
2018-07-05T09:43:13.132Z,3.80
2018-07-05T09:45:41.138Z,4.23
2018-07-05T09:48:09.209Z,4.93
2018-07-05T09:50:36.981Z,5.40
2018-07-05T09:53:05.015Z,5.23
2018-07-05T09:55:32.859Z,4.80
2018-07-05T09:58:00.882Z,6.43
2018-07-05T10:00:33.837Z,6.63
2018-07-05T10:03:01.937Z,6.10
2018-07-05T10:05:30.079Z,6.93
2018-07-05T10:07:58.012Z,4.87
2018-07-05T10:10:26.086Z,3.33
2018-07-05T10:12:53.991Z,5.10
2018-07-05T10:15:21.840Z,5.03
2018-07-05T10:17:49.978Z,6.37
2018-07-05T10:20:17.682Z,3.83
2018-07-05T10:22:45.550Z,6.33
2018-07-05T10:25:13.453Z,4.17
2018-07-05T10:27:41.218Z,6.03
2018-07-05T10:30:21.850Z,4.97
2018-07-05T10:33:01.855Z,7.80
2018-07-05T10:35:29.805Z,3.77
2018-07-05T10:38:01.757Z,4.60
2018-07-05T10:40:42.935Z,4.50
2018-07-05T10:43:23.410Z,8.00
2018-07-05T10:46:04.076Z,2.87
2018-07-05T10:48:44.702Z,5.10
2018-07-05T10:51:25.061Z,4.73
2018-07-05T10:54:05.829Z,4.20
2018-07-05T10:56:46.702Z,2.93
2018-07-05T10:59:27.369Z,3.30
2018-07-05T11:02:07.728Z,3.23
2018-07-05T11:04:48.211Z,5.40
2018-07-05T11:07:28.629Z,4.33
2018-07-05T11:10:08.738Z,3.60
2018-07-05T11:12:48.895Z,3.07
2018-07-05T11:15:29.321Z,2.50
2018-07-05T11:18:09.477Z,2.80
2018-07-05T11:20:49.873Z,4.07
2018-07-05T11:23:30.399Z,2.63
2018-07-05T11:26:10.786Z,4.47
2018-07-05T11:28:51.213Z,3.03
2018-07-05T11:31:31.782Z,3.43
2018-07-05T11:34:11.866Z,3.50
2018-07-05T11:36:52.358Z,6.17
2018-07-05T11:39:32.630Z,3.83
2018-07-05T11:42:12.955Z,4.67
2018-07-05T11:44:53.299Z,3.33
2018-07-05T11:47:33.744Z,4.33
2018-07-05T11:50:14.099Z,2.57
2018-07-05T11:52:54.762Z,5.20
2018-07-05T11:55:35.010Z,4.17
2018-07-05T11:58:15.372Z,3.63
2018-07-05T12:00:55.609Z,5.63
2018-07-05T12:03:35.945Z,3.27
2018-07-05T12:06:16.269Z,5.80
2018-07-05T12:08:56.749Z,5.07
2018-07-05T12:11:37.169Z,3.10
2018-07-05T12:14:17.557Z,5.97
2018-07-05T12:16:57.614Z,3.93
2018-07-05T12:19:38.098Z,3.63
2018-07-05T12:22:18.224Z,5.70
2018-07-05T12:24:58.888Z,2.60
2018-07-05T12:27:39.118Z,3.70
2018-07-05T12:30:19.523Z,3.80
2018-07-05T12:32:59.839Z,4.80
2018-07-05T12:35:40.569Z,4.17
2018-07-05T12:38:20.956Z,5.20
2018-07-05T12:41:01.396Z,3.57
2018-07-05T12:43:41.785Z,4.80
2018-07-05T12:46:31.922Z,5.77
2018-07-05T12:49:12.434Z,12.33
2018-07-05T12:54:45.282Z,6.13
2018-07-05T12:57:25.262Z,4.57
2018-07-05T13:00:05.628Z,4.90
2018-07-05T13:02:45.846Z,5.60
2018-07-05T13:05:26.369Z,5.87
2018-07-05T13:08:06.948Z,8.40
2018-07-05T13:10:47.234Z,4.00
2018-07-05T13:13:27.726Z,5.47
2018-07-05T13:16:07.910Z,6.47
2018-07-05T13:18:48.270Z,17.93
2018-07-05T13:21:28.524Z,4.97
2018-07-05T13:24:09.196Z,7.87
2018-07-05T13:26:49.474Z,3.17
2018-07-05T13:29:29.978Z,7.27
2018-07-05T13:32:10.052Z,4.47
2018-07-05T13:34:50.322Z,5.63
2018-07-05T13:37:30.681Z,4.90
2018-07-05T13:40:11.307Z,3.93
2018-07-05T13:42:51.500Z,5.43
2018-07-05T13:45:32.127Z,7.63
2018-07-05T13:48:12.221Z,3.13
2018-07-05T13:50:52.733Z,4.63
2018-07-05T13:53:33.172Z,9.93
2018-07-05T13:56:14.167Z,3.33
2018-07-05T13:58:54.375Z,5.07
2018-07-05T14:01:35.752Z,4.47
2018-07-05T14:04:16.031Z,8.23
2018-07-05T14:06:56.542Z,4.00
2018-07-05T14:09:36.943Z,4.00
2018-07-05T14:12:42.590Z,5.20
2018-07-05T14:18:15.402Z,4.00
2018-07-05T14:20:55.753Z,4.70
2018-07-05T14:23:36.366Z,3.83
2018-07-05T14:26:16.694Z,5.00
2018-07-05T14:28:57.188Z,3.50
2018-07-05T14:31:37.728Z,7.47
2018-07-05T14:34:17.750Z,3.30
2018-07-05T14:36:58.420Z,4.37
2018-07-05T14:39:46.483Z,5.30
2018-07-05T14:42:26.817Z,15.47
2018-07-05T14:45:07.486Z,6.30
2018-07-05T14:47:48.258Z,5.83
2018-07-05T14:50:28.620Z,6.50
2018-07-05T14:53:09.100Z,4.10
2018-07-05T14:55:49.069Z,3.80
2018-07-05T14:58:29.919Z,2.93
2018-07-05T15:01:10.255Z,3.70
2018-07-05T15:03:51.020Z,5.37
2018-07-05T15:06:31.177Z,7.23
2018-07-05T15:09:11.846Z,6.40
2018-07-05T15:11:52.072Z,5.03
2018-07-05T15:14:32.597Z,4.10
2018-07-05T15:17:13.098Z,5.73
2018-07-05T15:19:53.487Z,6.03
2018-07-05T15:22:33.743Z,5.07
2018-07-05T15:25:14.022Z,11.13
2018-07-05T15:27:54.182Z,7.93
2018-07-05T15:30:34.802Z,8.93
2018-07-05T15:33:15.105Z,5.03
2018-07-05T15:35:55.936Z,6.47
2018-07-05T15:38:36.518Z,5.47
2018-07-05T15:41:16.914Z,7.10
2018-07-05T15:43:57.353Z,4.73
2018-07-05T15:46:38.329Z,8.27
2018-07-05T15:49:18.871Z,6.20
2018-07-05T15:51:59.417Z,6.63
2018-07-05T15:54:39.586Z,6.07
2018-07-05T15:57:20.280Z,6.30
2018-07-05T16:00:01.169Z,7.53
2018-07-05T16:02:41.711Z,9.67
2018-07-05T16:05:22.155Z,8.97
2018-07-05T16:08:02.820Z,6.90
2018-07-05T16:10:42.956Z,8.40
2018-07-05T16:13:23.374Z,6.17
2018-07-05T16:16:03.906Z,9.00
2018-07-05T16:18:44.464Z,9.33
2018-07-05T16:21:24.557Z,8.40
2018-07-05T16:24:05.183Z,10.27
2018-07-05T16:26:45.334Z,10.80
2018-07-05T16:29:25.998Z,7.10
2018-07-05T16:32:06.260Z,11.37
2018-07-05T16:34:46.922Z,7.57
2018-07-05T16:37:27.481Z,7.43
2018-07-05T16:40:08.099Z,10.40
2018-07-05T16:42:48.396Z,6.47
2018-07-05T16:45:29.121Z,7.40
2018-07-05T16:48:09.545Z,6.67
2018-07-05T16:50:49.932Z,5.70
2018-07-05T16:53:30.464Z,9.73
2018-07-05T16:56:10.966Z,6.73
2018-07-05T16:58:51.180Z,7.60
2018-07-05T17:01:31.868Z,7.47
2018-07-05T17:04:12.141Z,5.60
2018-07-05T17:06:52.631Z,8.60
2018-07-05T17:09:32.820Z,8.07
2018-07-05T17:12:13.223Z,11.57
2018-07-05T17:14:53.488Z,9.33
2018-07-05T17:17:33.996Z,7.97
2018-07-05T17:20:14.358Z,7.10
2018-07-05T17:22:55.362Z,8.67
2018-07-05T17:25:35.594Z,6.27
2018-07-05T17:28:16.053Z,7.97
2018-07-05T17:30:56.410Z,7.57
2018-07-05T17:33:37.172Z,9.00
2018-07-05T17:36:17.338Z,8.00
2018-07-05T17:38:57.941Z,6.93
2018-07-05T17:41:38.258Z,7.17
2018-07-05T17:44:18.757Z,6.87
2018-07-05T17:46:59.122Z,6.10
2018-07-05T17:49:39.611Z,7.50
2018-07-05T17:52:19.799Z,7.40
2018-07-05T17:55:00.296Z,6.80
2018-07-05T17:57:40.721Z,9.20
2018-07-05T18:00:21.282Z,9.53
2018-07-05T18:03:01.954Z,7.37
2018-07-05T18:05:42.412Z,6.53
2018-07-05T18:08:22.625Z,11.07
2018-07-05T18:11:03.136Z,6.97
2018-07-05T18:13:43.667Z,7.53
2018-07-05T18:16:24.131Z,10.60
2018-07-05T18:19:04.430Z,9.67
2018-07-05T18:21:44.956Z,6.90
2018-07-05T18:24:25.144Z,7.80
2018-07-05T18:27:05.704Z,8.13
2018-07-05T18:29:45.968Z,7.30
2018-07-05T18:32:26.562Z,8.53
2018-07-05T18:35:06.891Z,10.57
2018-07-05T18:37:47.286Z,7.57
2018-07-05T18:40:27.858Z,10.77
2018-07-05T18:43:08.165Z,10.53
2018-07-05T18:45:48.628Z,8.10
2018-07-05T18:48:28.874Z,12.13
2018-07-05T18:51:09.441Z,9.87
2018-07-05T18:53:49.876Z,9.90
2018-07-05T18:56:30.293Z,8.33
2018-07-05T18:59:12.127Z,12.33
2018-07-05T19:01:52.857Z,9.60
2018-07-05T19:04:33.625Z,9.47
2018-07-05T19:07:14.209Z,10.40
2018-07-05T19:09:54.414Z,10.60
2018-07-05T19:12:34.881Z,9.60
2018-07-05T19:15:15.337Z,9.37
2018-07-05T19:17:55.703Z,9.33
2018-07-05T19:20:36.059Z,7.37
2018-07-05T19:23:16.731Z,6.63
2018-07-05T19:25:57.269Z,7.57
2018-07-05T19:28:37.802Z,9.67
2018-07-05T19:31:18.098Z,5.40
2018-07-05T19:33:58.392Z,6.57
2018-07-05T19:36:38.825Z,7.83
2018-07-05T19:39:19.292Z,7.23
2018-07-05T19:42:00.060Z,7.53
2018-07-05T19:44:40.417Z,10.53
2018-07-05T19:47:20.879Z,9.37
2018-07-05T19:50:01.117Z,10.07
2018-07-05T19:52:41.630Z,8.07
2018-07-05T19:55:21.954Z,6.03
2018-07-05T19:58:02.469Z,8.37
2018-07-05T20:00:42.625Z,6.30
2018-07-05T20:03:23.292Z,7.70
2018-07-05T20:06:04.160Z,5.07
2018-07-05T20:08:44.779Z,6.40
2018-07-05T20:11:25.342Z,6.67
2018-07-05T20:14:05.906Z,9.20
2018-07-05T20:16:46.143Z,4.83
2018-07-05T20:19:26.750Z,6.43
2018-07-05T20:22:10.882Z,6.57
2018-07-05T20:24:51.546Z,5.60
2018-07-05T20:27:32.000Z,3.93
2018-07-05T20:30:12.629Z,5.20
2018-07-05T20:32:53.232Z,4.83
2018-07-05T20:35:33.596Z,4.90
2018-07-05T20:38:13.706Z,3.77
2018-07-05T20:40:54.410Z,7.17
2018-07-05T20:43:34.565Z,4.27
2018-07-05T20:46:15.181Z,6.87
2018-07-05T20:48:55.592Z,6.97
2018-07-05T20:51:36.008Z,3.33
2018-07-05T20:54:16.629Z,4.90
2018-07-05T20:56:57.517Z,3.57
2018-07-05T20:59:38.154Z,3.07
2018-07-05T21:02:18.688Z,4.23
2018-07-05T21:05:00.155Z,3.77
2018-07-05T21:07:41.356Z,3.77
2018-07-05T21:10:21.637Z,4.57
2018-07-05T21:13:02.497Z,5.93
2018-07-05T21:15:42.601Z,3.73
2018-07-05T21:18:23.094Z,3.23
2018-07-05T21:21:04.102Z,4.97
2018-07-05T21:23:44.640Z,3.17
2018-07-05T21:26:25.440Z,4.33
2018-07-05T21:29:05.892Z,5.10
2018-07-05T21:31:46.381Z,3.77
2018-07-05T21:34:26.819Z,3.80
2018-07-05T21:37:07.023Z,13.50
2018-07-05T21:39:47.688Z,5.93
2018-07-05T21:42:28.253Z,4.43
2018-07-05T21:45:08.689Z,6.00
2018-07-05T21:47:49.187Z,5.20
2018-07-05T21:50:30.310Z,5.37
2018-07-05T21:53:10.676Z,7.50
2018-07-05T21:55:51.496Z,7.87
2018-07-05T21:58:32.101Z,6.40
2018-07-05T22:01:12.779Z,6.93
2018-07-05T22:03:52.899Z,7.10
2018-07-05T22:06:33.311Z,6.23
2018-07-05T22:09:13.945Z,7.60
2018-07-05T22:11:54.744Z,9.57
2018-07-05T22:14:35.178Z,7.80
2018-07-05T22:17:20.432Z,8.60
2018-07-05T22:20:05.841Z,6.43
2018-07-05T22:22:51.310Z,5.43
2018-07-05T22:25:36.787Z,7.20
2018-07-05T22:28:22.369Z,5.80
2018-07-05T22:31:07.747Z,8.37
2018-07-05T22:33:48.239Z,7.13
2018-07-05T22:36:28.999Z,11.17
2018-07-05T22:39:09.327Z,8.37
2018-07-05T22:41:49.745Z,11.53
2018-07-05T22:44:30.260Z,13.83
2018-07-05T22:47:11.006Z,20.57
2018-07-05T22:49:51.183Z,24.27
2018-07-05T22:52:31.757Z,22.40
2018-07-05T22:55:12.107Z,14.17
2018-07-05T22:57:52.510Z,7.30
2018-07-05T23:00:33.028Z,73.73
2018-07-05T23:03:13.355Z,48.90
2018-07-05T23:05:53.640Z,136.13
2018-07-05T23:08:33.999Z,137.63
2018-07-05T23:11:14.672Z,79.90
2018-07-05T23:13:55.437Z,49.80
2018-07-05T23:16:36.004Z,49.97
2018-07-05T23:19:16.469Z,71.73
2018-07-05T23:21:56.825Z,96.97
2018-07-05T23:24:37.367Z,140.13
2018-07-05T23:27:17.803Z,126.37
2018-07-05T23:29:58.252Z,99.87
2018-07-05T23:32:38.671Z,73.87
2018-07-05T23:35:19.238Z,74.70
2018-07-05T23:37:59.496Z,105.77
2018-07-05T23:40:39.998Z,99.93
2018-07-05T23:43:20.211Z,56.17
2018-07-05T23:46:00.753Z,78.17
2018-07-05T23:48:40.929Z,26.30
2018-07-05T23:51:21.599Z,18.30
2018-07-05T23:54:01.683Z,12.63
2018-07-05T23:56:42.216Z,12.33
2018-07-05T23:59:22.579Z,24.50
